sensor_id;sensor_type;location;lat;lon;timestamp;P1;durP1;ratioP1;P2;durP2;ratioP2
76935;SDS011;65881;52.438;16.744;2023-02-28T00:01:20;19.00;;;11.82;;
76935;SDS011;65881;52.438;16.744;2023-02-28T00:03:46;25.60;;;11.95;;
76935;SDS011;65881;52.438;16.744;2023-02-28T00:06:12;24.42;;;10.73;;
76935;SDS011;65881;52.438;16.744;2023-02-28T00:08:38;29.10;;;13.80;;
76935;SDS011;65881;52.438;16.744;2023-02-28T00:11:08;24.83;;;11.60;;
76935;SDS011;65881;52.438;16.744;2023-02-28T00:13:37;25.10;;;11.38;;
76935;SDS011;65881;52.438;16.744;2023-02-28T00:16:06;27.48;;;13.57;;
76935;SDS011;65881;52.438;16.744;2023-02-28T00:18:34;23.10;;;12.02;;
76935;SDS011;65881;52.438;16.744;2023-02-28T00:21:01;25.50;;;13.20;;
76935;SDS011;65881;52.438;16.744;2023-02-28T00:23:27;26.73;;;12.90;;
76935;SDS011;65881;52.438;16.744;2023-02-28T00:25:53;25.30;;;13.30;;
76935;SDS011;65881;52.438;16.744;2023-02-28T00:28:19;27.27;;;12.88;;
76935;SDS011;65881;52.438;16.744;2023-02-28T00:30:45;27.00;;;12.57;;
76935;SDS011;65881;52.438;16.744;2023-02-28T00:33:12;28.92;;;14.18;;
76935;SDS011;65881;52.438;16.744;2023-02-28T00:35:37;31.52;;;14.82;;
76935;SDS011;65881;52.438;16.744;2023-02-28T00:38:03;32.25;;;15.55;;
76935;SDS011;65881;52.438;16.744;2023-02-28T00:40:29;31.80;;;16.52;;
76935;SDS011;65881;52.438;16.744;2023-02-28T00:42:55;42.10;;;19.17;;
76935;SDS011;65881;52.438;16.744;2023-02-28T00:45:21;42.88;;;19.23;;
76935;SDS011;65881;52.438;16.744;2023-02-28T00:47:46;40.97;;;20.42;;
76935;SDS011;65881;52.438;16.744;2023-02-28T00:50:16;37.10;;;20.08;;
76935;SDS011;65881;52.438;16.744;2023-02-28T00:52:42;39.00;;;18.70;;
76935;SDS011;65881;52.438;16.744;2023-02-28T00:55:08;37.80;;;17.70;;
76935;SDS011;65881;52.438;16.744;2023-02-28T00:57:34;41.50;;;17.85;;
76935;SDS011;65881;52.438;16.744;2023-02-28T01:00:00;36.88;;;18.15;;
76935;SDS011;65881;52.438;16.744;2023-02-28T01:02:26;41.08;;;20.13;;
76935;SDS011;65881;52.438;16.744;2023-02-28T01:04:52;41.67;;;21.50;;
76935;SDS011;65881;52.438;16.744;2023-02-28T01:07:18;45.35;;;21.02;;
76935;SDS011;65881;52.438;16.744;2023-02-28T01:09:44;41.70;;;20.80;;
76935;SDS011;65881;52.438;16.744;2023-02-28T01:12:10;39.97;;;20.67;;
76935;SDS011;65881;52.438;16.744;2023-02-28T01:14:38;50.15;;;20.63;;
76935;SDS011;65881;52.438;16.744;2023-02-28T01:17:03;39.10;;;17.88;;
76935;SDS011;65881;52.438;16.744;2023-02-28T01:19:30;27.75;;;15.93;;
76935;SDS011;65881;52.438;16.744;2023-02-28T01:21:56;34.70;;;17.27;;
76935;SDS011;65881;52.438;16.744;2023-02-28T01:24:21;41.17;;;18.73;;
76935;SDS011;65881;52.438;16.744;2023-02-28T01:26:47;33.42;;;16.48;;
76935;SDS011;65881;52.438;16.744;2023-02-28T01:29:14;37.30;;;18.30;;
76935;SDS011;65881;52.438;16.744;2023-02-28T01:31:40;43.83;;;19.05;;
76935;SDS011;65881;52.438;16.744;2023-02-28T01:34:06;34.17;;;17.65;;
76935;SDS011;65881;52.438;16.744;2023-02-28T01:36:31;34.50;;;17.92;;
76935;SDS011;65881;52.438;16.744;2023-02-28T01:38:57;42.30;;;21.20;;
76935;SDS011;65881;52.438;16.744;2023-02-28T01:41:24;51.83;;;24.05;;
76935;SDS011;65881;52.438;16.744;2023-02-28T01:43:52;43.72;;;21.85;;
76935;SDS011;65881;52.438;16.744;2023-02-28T01:46:21;56.05;;;26.80;;
76935;SDS011;65881;52.438;16.744;2023-02-28T01:48:48;51.00;;;23.98;;
76935;SDS011;65881;52.438;16.744;2023-02-28T01:51:19;38.90;;;21.20;;
76935;SDS011;65881;52.438;16.744;2023-02-28T01:53:54;33.78;;;17.80;;
76935;SDS011;65881;52.438;16.744;2023-02-28T01:56:24;27.95;;;15.45;;
76935;SDS011;65881;52.438;16.744;2023-02-28T01:58:54;32.92;;;15.40;;
76935;SDS011;65881;52.438;16.744;2023-02-28T02:01:20;27.85;;;15.45;;
76935;SDS011;65881;52.438;16.744;2023-02-28T02:03:51;25.88;;;14.73;;
76935;SDS011;65881;52.438;16.744;2023-02-28T02:06:40;35.15;;;15.05;;
76935;SDS011;65881;52.438;16.744;2023-02-28T02:09:10;28.90;;;17.55;;
76935;SDS011;65881;52.438;16.744;2023-02-28T02:11:37;35.55;;;17.55;;
76935;SDS011;65881;52.438;16.744;2023-02-28T02:14:11;34.97;;;16.17;;
76935;SDS011;65881;52.438;16.744;2023-02-28T02:25:15;34.97;;;16.17;;
76935;SDS011;65881;52.438;16.744;2023-02-28T02:30:42;29.88;;;18.45;;
76935;SDS011;65881;52.438;16.744;2023-02-28T02:41:17;34.15;;;17.17;;
76935;SDS011;65881;52.438;16.744;2023-02-28T02:43:53;44.97;;;21.02;;
76935;SDS011;65881;52.438;16.744;2023-02-28T02:46:41;41.08;;;20.15;;
76935;SDS011;65881;52.438;16.744;2023-02-28T02:49:10;41.72;;;20.60;;
76935;SDS011;65881;52.438;16.744;2023-02-28T02:51:41;27.38;;;17.33;;
76935;SDS011;65881;52.438;16.744;2023-02-28T02:54:41;39.47;;;19.45;;
76935;SDS011;65881;52.438;16.744;2023-02-28T02:57:13;35.38;;;20.42;;
76935;SDS011;65881;52.438;16.744;2023-02-28T02:59:46;42.67;;;19.58;;
76935;SDS011;65881;52.438;16.744;2023-02-28T03:02:14;40.20;;;19.27;;
76935;SDS011;65881;52.438;16.744;2023-02-28T03:04:43;38.92;;;19.45;;
76935;SDS011;65881;52.438;16.744;2023-02-28T03:09:39;37.03;;;16.67;;
76935;SDS011;65881;52.438;16.744;2023-02-28T03:12:06;32.85;;;18.95;;
76935;SDS011;65881;52.438;16.744;2023-02-28T03:28:22;43.65;;;20.60;;
76935;SDS011;65881;52.438;16.744;2023-02-28T03:31:07;43.35;;;20.20;;
76935;SDS011;65881;52.438;16.744;2023-02-28T03:36:10;41.58;;;18.75;;
76935;SDS011;65881;52.438;16.744;2023-02-28T03:38:44;38.70;;;21.83;;
76935;SDS011;65881;52.438;16.744;2023-02-28T03:41:14;39.30;;;19.35;;
76935;SDS011;65881;52.438;16.744;2023-02-28T03:43:46;36.15;;;19.65;;
76935;SDS011;65881;52.438;16.744;2023-02-28T03:46:21;43.38;;;19.98;;
76935;SDS011;65881;52.438;16.744;2023-02-28T03:51:22;47.05;;;20.63;;
76935;SDS011;65881;52.438;16.744;2023-02-28T03:53:50;43.17;;;19.23;;
76935;SDS011;65881;52.438;16.744;2023-02-28T03:56:30;49.58;;;19.05;;
76935;SDS011;65881;52.438;16.744;2023-02-28T03:59:01;38.45;;;17.90;;
76935;SDS011;65881;52.438;16.744;2023-02-28T04:01:47;33.78;;;19.52;;
76935;SDS011;65881;52.438;16.744;2023-02-28T04:04:14;34.90;;;18.67;;
76935;SDS011;65881;52.438;16.744;2023-02-28T04:06:42;42.10;;;20.50;;
76935;SDS011;65881;52.438;16.744;2023-02-28T04:09:10;37.67;;;19.23;;
76935;SDS011;65881;52.438;16.744;2023-02-28T04:11:40;39.10;;;16.92;;
76935;SDS011;65881;52.438;16.744;2023-02-28T04:14:06;31.75;;;17.08;;
76935;SDS011;65881;52.438;16.744;2023-02-28T04:16:33;32.30;;;18.08;;
76935;SDS011;65881;52.438;16.744;2023-02-28T04:19:02;44.95;;;20.73;;
76935;SDS011;65881;52.438;16.744;2023-02-28T04:21:40;39.95;;;20.52;;
76935;SDS011;65881;52.438;16.744;2023-02-28T04:24:08;45.83;;;22.15;;
76935;SDS011;65881;52.438;16.744;2023-02-28T04:26:39;46.53;;;19.98;;
76935;SDS011;65881;52.438;16.744;2023-02-28T04:29:06;40.80;;;19.10;;
76935;SDS011;65881;52.438;16.744;2023-02-28T04:31:33;46.88;;;20.23;;
76935;SDS011;65881;52.438;16.744;2023-02-28T04:33:59;43.97;;;20.15;;
76935;SDS011;65881;52.438;16.744;2023-02-28T04:36:26;35.50;;;19.00;;
76935;SDS011;65881;52.438;16.744;2023-02-28T04:38:52;32.03;;;18.60;;
76935;SDS011;65881;52.438;16.744;2023-02-28T04:41:18;32.28;;;17.35;;
76935;SDS011;65881;52.438;16.744;2023-02-28T04:43:44;32.80;;;17.67;;
76935;SDS011;65881;52.438;16.744;2023-02-28T04:48:43;42.90;;;21.77;;
76935;SDS011;65881;52.438;16.744;2023-02-28T04:51:10;29.92;;;19.52;;
76935;SDS011;65881;52.438;16.744;2023-02-28T04:53:38;34.20;;;17.77;;
76935;SDS011;65881;52.438;16.744;2023-02-28T04:56:05;34.92;;;18.27;;
76935;SDS011;65881;52.438;16.744;2023-02-28T04:58:31;34.08;;;18.25;;
76935;SDS011;65881;52.438;16.744;2023-02-28T05:01:07;30.77;;;17.90;;
76935;SDS011;65881;52.438;16.744;2023-02-28T05:03:40;33.83;;;17.83;;
76935;SDS011;65881;52.438;16.744;2023-02-28T05:06:07;32.20;;;17.67;;
76935;SDS011;65881;52.438;16.744;2023-02-28T05:08:33;36.03;;;18.67;;
76935;SDS011;65881;52.438;16.744;2023-02-28T05:10:59;44.65;;;19.90;;
76935;SDS011;65881;52.438;16.744;2023-02-28T05:13:26;31.13;;;16.73;;
76935;SDS011;65881;52.438;16.744;2023-02-28T05:15:52;31.85;;;17.35;;
76935;SDS011;65881;52.438;16.744;2023-02-28T05:18:18;38.38;;;17.58;;
76935;SDS011;65881;52.438;16.744;2023-02-28T05:20:44;30.38;;;18.80;;
76935;SDS011;65881;52.438;16.744;2023-02-28T05:23:11;30.10;;;17.08;;
76935;SDS011;65881;52.438;16.744;2023-02-28T05:25:38;29.02;;;16.02;;
76935;SDS011;65881;52.438;16.744;2023-02-28T05:28:04;31.85;;;17.00;;
76935;SDS011;65881;52.438;16.744;2023-02-28T05:30:30;40.60;;;18.65;;
76935;SDS011;65881;52.438;16.744;2023-02-28T05:32:56;34.33;;;17.95;;
76935;SDS011;65881;52.438;16.744;2023-02-28T05:35:23;38.17;;;20.77;;
76935;SDS011;65881;52.438;16.744;2023-02-28T05:37:49;34.00;;;18.67;;
76935;SDS011;65881;52.438;16.744;2023-02-28T05:40:15;30.77;;;17.80;;
76935;SDS011;65881;52.438;16.744;2023-02-28T05:42:41;34.85;;;17.98;;
76935;SDS011;65881;52.438;16.744;2023-02-28T05:45:08;40.72;;;18.73;;
76935;SDS011;65881;52.438;16.744;2023-02-28T05:47:34;42.50;;;20.48;;
76935;SDS011;65881;52.438;16.744;2023-02-28T05:50:00;50.13;;;22.77;;
76935;SDS011;65881;52.438;16.744;2023-02-28T05:52:27;43.75;;;23.00;;
76935;SDS011;65881;52.438;16.744;2023-02-28T05:54:54;42.92;;;22.10;;
76935;SDS011;65881;52.438;16.744;2023-02-28T05:57:21;37.83;;;20.35;;
76935;SDS011;65881;52.438;16.744;2023-02-28T05:59:47;41.63;;;23.05;;
76935;SDS011;65881;52.438;16.744;2023-02-28T06:02:13;37.15;;;21.70;;
76935;SDS011;65881;52.438;16.744;2023-02-28T06:04:41;52.17;;;23.50;;
76935;SDS011;65881;52.438;16.744;2023-02-28T06:07:08;45.28;;;24.42;;
76935;SDS011;65881;52.438;16.744;2023-02-28T06:09:34;52.35;;;26.05;;
76935;SDS011;65881;52.438;16.744;2023-02-28T06:12:01;55.67;;;23.80;;
76935;SDS011;65881;52.438;16.744;2023-02-28T06:14:30;43.28;;;22.70;;
76935;SDS011;65881;52.438;16.744;2023-02-28T06:16:57;45.70;;;23.15;;
76935;SDS011;65881;52.438;16.744;2023-02-28T06:19:24;48.55;;;24.17;;
76935;SDS011;65881;52.438;16.744;2023-02-28T06:21:51;49.78;;;23.30;;
76935;SDS011;65881;52.438;16.744;2023-02-28T06:24:18;43.38;;;20.30;;
76935;SDS011;65881;52.438;16.744;2023-02-28T06:26:45;38.72;;;20.65;;
76935;SDS011;65881;52.438;16.744;2023-02-28T06:29:11;36.20;;;20.88;;
76935;SDS011;65881;52.438;16.744;2023-02-28T06:31:42;31.48;;;21.73;;
76935;SDS011;65881;52.438;16.744;2023-02-28T06:34:09;39.10;;;21.38;;
76935;SDS011;65881;52.438;16.744;2023-02-28T06:36:36;45.95;;;21.90;;
76935;SDS011;65881;52.438;16.744;2023-02-28T06:39:17;37.72;;;21.00;;
76935;SDS011;65881;52.438;16.744;2023-02-28T06:41:46;45.60;;;20.20;;
76935;SDS011;65881;52.438;16.744;2023-02-28T06:44:17;41.05;;;19.10;;
76935;SDS011;65881;52.438;16.744;2023-02-28T06:46:47;34.45;;;19.80;;
76935;SDS011;65881;52.438;16.744;2023-02-28T06:52:07;32.58;;;19.52;;
76935;SDS011;65881;52.438;16.744;2023-02-28T06:54:36;33.85;;;19.95;;
76935;SDS011;65881;52.438;16.744;2023-02-28T06:57:09;37.97;;;20.42;;
76935;SDS011;65881;52.438;16.744;2023-02-28T06:59:37;36.47;;;20.65;;
76935;SDS011;65881;52.438;16.744;2023-02-28T07:02:03;32.50;;;18.70;;
76935;SDS011;65881;52.438;16.744;2023-02-28T07:04:35;45.00;;;20.90;;
76935;SDS011;65881;52.438;16.744;2023-02-28T07:07:01;38.42;;;19.80;;
76935;SDS011;65881;52.438;16.744;2023-02-28T07:09:36;38.28;;;21.25;;
76935;SDS011;65881;52.438;16.744;2023-02-28T07:12:01;35.25;;;18.67;;
76935;SDS011;65881;52.438;16.744;2023-02-28T07:14:28;33.17;;;19.50;;
76935;SDS011;65881;52.438;16.744;2023-02-28T07:16:55;45.20;;;22.77;;
76935;SDS011;65881;52.438;16.744;2023-02-28T07:19:29;36.15;;;19.08;;
76935;SDS011;65881;52.438;16.744;2023-02-28T07:21:55;31.63;;;19.90;;
76935;SDS011;65881;52.438;16.744;2023-02-28T07:24:20;36.20;;;20.80;;
76935;SDS011;65881;52.438;16.744;2023-02-28T07:26:53;38.60;;;18.88;;
76935;SDS011;65881;52.438;16.744;2023-02-28T07:29:19;37.70;;;22.58;;
76935;SDS011;65881;52.438;16.744;2023-02-28T07:31:44;39.75;;;19.90;;
76935;SDS011;65881;52.438;16.744;2023-02-28T07:34:11;37.67;;;20.35;;
76935;SDS011;65881;52.438;16.744;2023-02-28T07:36:38;34.38;;;17.48;;
76935;SDS011;65881;52.438;16.744;2023-02-28T07:39:03;38.65;;;20.08;;
76935;SDS011;65881;52.438;16.744;2023-02-28T07:41:29;35.45;;;18.77;;
76935;SDS011;65881;52.438;16.744;2023-02-28T07:43:58;29.77;;;16.80;;
76935;SDS011;65881;52.438;16.744;2023-02-28T07:46:24;25.30;;;18.33;;
76935;SDS011;65881;52.438;16.744;2023-02-28T07:49:00;30.42;;;18.10;;
76935;SDS011;65881;52.438;16.744;2023-02-28T07:51:30;32.92;;;14.82;;
76935;SDS011;65881;52.438;16.744;2023-02-28T07:53:56;33.05;;;17.55;;
76935;SDS011;65881;52.438;16.744;2023-02-28T07:56:26;34.92;;;18.27;;
76935;SDS011;65881;52.438;16.744;2023-02-28T07:58:52;27.35;;;16.25;;
76935;SDS011;65881;52.438;16.744;2023-02-28T08:01:18;27.70;;;16.88;;
76935;SDS011;65881;52.438;16.744;2023-02-28T08:03:44;30.90;;;16.17;;
76935;SDS011;65881;52.438;16.744;2023-02-28T08:06:14;34.63;;;18.00;;
76935;SDS011;65881;52.438;16.744;2023-02-28T08:08:42;32.83;;;17.63;;
76935;SDS011;65881;52.438;16.744;2023-02-28T08:11:09;30.30;;;16.80;;
76935;SDS011;65881;52.438;16.744;2023-02-28T08:13:36;30.05;;;15.70;;
76935;SDS011;65881;52.438;16.744;2023-02-28T08:16:08;27.45;;;16.08;;
76935;SDS011;65881;52.438;16.744;2023-02-28T08:18:40;28.95;;;16.67;;
76935;SDS011;65881;52.438;16.744;2023-02-28T08:21:09;34.20;;;17.92;;
76935;SDS011;65881;52.438;16.744;2023-02-28T08:23:39;28.80;;;16.17;;
76935;SDS011;65881;52.438;16.744;2023-02-28T08:26:05;28.42;;;15.18;;
76935;SDS011;65881;52.438;16.744;2023-02-28T08:28:32;28.65;;;18.20;;
76935;SDS011;65881;52.438;16.744;2023-02-28T08:30:58;26.70;;;15.68;;
76935;SDS011;65881;52.438;16.744;2023-02-28T08:33:24;33.50;;;17.35;;
76935;SDS011;65881;52.438;16.744;2023-02-28T08:35:54;27.48;;;13.80;;
76935;SDS011;65881;52.438;16.744;2023-02-28T08:38:21;23.80;;;14.00;;
76935;SDS011;65881;52.438;16.744;2023-02-28T08:40:47;20.30;;;12.77;;
76935;SDS011;65881;52.438;16.744;2023-02-28T08:43:13;29.20;;;13.95;;
76935;SDS011;65881;52.438;16.744;2023-02-28T08:45:39;25.02;;;13.35;;
76935;SDS011;65881;52.438;16.744;2023-02-28T08:48:05;25.55;;;12.88;;
76935;SDS011;65881;52.438;16.744;2023-02-28T08:50:31;21.05;;;12.48;;
76935;SDS011;65881;52.438;16.744;2023-02-28T08:52:56;22.35;;;12.88;;
76935;SDS011;65881;52.438;16.744;2023-02-28T08:55:23;22.20;;;12.18;;
76935;SDS011;65881;52.438;16.744;2023-02-28T08:57:49;17.35;;;10.38;;
76935;SDS011;65881;52.438;16.744;2023-02-28T09:00:14;15.60;;;10.93;;
76935;SDS011;65881;52.438;16.744;2023-02-28T09:02:40;22.70;;;11.52;;
76935;SDS011;65881;52.438;16.744;2023-02-28T09:05:09;14.93;;;9.57;;
76935;SDS011;65881;52.438;16.744;2023-02-28T09:07:35;18.77;;;10.20;;
76935;SDS011;65881;52.438;16.744;2023-02-28T09:10:16;18.65;;;10.55;;
76935;SDS011;65881;52.438;16.744;2023-02-28T09:12:42;18.73;;;9.50;;
76935;SDS011;65881;52.438;16.744;2023-02-28T09:15:12;12.55;;;9.25;;
76935;SDS011;65881;52.438;16.744;2023-02-28T09:17:38;17.67;;;9.93;;
76935;SDS011;65881;52.438;16.744;2023-02-28T09:20:04;15.10;;;11.23;;
76935;SDS011;65881;52.438;16.744;2023-02-28T09:22:30;19.48;;;8.98;;
76935;SDS011;65881;52.438;16.744;2023-02-28T09:24:56;16.67;;;10.13;;
76935;SDS011;65881;52.438;16.744;2023-02-28T09:27:22;18.30;;;10.13;;
76935;SDS011;65881;52.438;16.744;2023-02-28T09:29:47;18.48;;;10.55;;
76935;SDS011;65881;52.438;16.744;2023-02-28T09:32:13;19.98;;;10.32;;
76935;SDS011;65881;52.438;16.744;2023-02-28T09:34:39;15.98;;;8.63;;
76935;SDS011;65881;52.438;16.744;2023-02-28T09:37:05;15.63;;;9.43;;
76935;SDS011;65881;52.438;16.744;2023-02-28T09:39:30;15.77;;;9.35;;
76935;SDS011;65881;52.438;16.744;2023-02-28T09:41:56;16.77;;;9.27;;
76935;SDS011;65881;52.438;16.744;2023-02-28T09:44:30;17.95;;;9.25;;
76935;SDS011;65881;52.438;16.744;2023-02-28T09:47:14;16.77;;;8.18;;
76935;SDS011;65881;52.438;16.744;2023-02-28T09:49:44;14.88;;;8.20;;
76935;SDS011;65881;52.438;16.744;2023-02-28T09:52:24;17.67;;;8.75;;
76935;SDS011;65881;52.438;16.744;2023-02-28T09:57:47;17.23;;;9.82;;
76935;SDS011;65881;52.438;16.744;2023-02-28T10:00:22;12.70;;;8.48;;
76935;SDS011;65881;52.438;16.744;2023-02-28T10:05:38;13.77;;;7.70;;
76935;SDS011;65881;52.438;16.744;2023-02-28T10:08:13;17.15;;;8.75;;
76935;SDS011;65881;52.438;16.744;2023-02-28T10:10:55;13.60;;;8.52;;
76935;SDS011;65881;52.438;16.744;2023-02-28T10:13:37;12.10;;;6.30;;
76935;SDS011;65881;52.438;16.744;2023-02-28T10:16:23;16.58;;;7.82;;
76935;SDS011;65881;52.438;16.744;2023-02-28T10:18:56;13.18;;;6.53;;
76935;SDS011;65881;52.438;16.744;2023-02-28T10:21:38;12.32;;;6.55;;
76935;SDS011;65881;52.438;16.744;2023-02-28T10:24:28;8.85;;;5.30;;
76935;SDS011;65881;52.438;16.744;2023-02-28T10:27:14;7.13;;;5.82;;
76935;SDS011;65881;52.438;16.744;2023-02-28T10:29:47;10.55;;;6.18;;
76935;SDS011;65881;52.438;16.744;2023-02-28T10:32:16;10.45;;;5.65;;
76935;SDS011;65881;52.438;16.744;2023-02-28T10:34:44;9.77;;;6.78;;
76935;SDS011;65881;52.438;16.744;2023-02-28T10:37:15;9.57;;;6.32;;
76935;SDS011;65881;52.438;16.744;2023-02-28T10:39:46;9.20;;;5.45;;
76935;SDS011;65881;52.438;16.744;2023-02-28T10:42:25;8.00;;;5.57;;
76935;SDS011;65881;52.438;16.744;2023-02-28T10:45:06;11.32;;;6.30;;
76935;SDS011;65881;52.438;16.744;2023-02-28T10:47:32;10.50;;;6.47;;
76935;SDS011;65881;52.438;16.744;2023-02-28T10:50:01;12.27;;;5.97;;
76935;SDS011;65881;52.438;16.744;2023-02-28T10:52:41;9.75;;;5.90;;
76935;SDS011;65881;52.438;16.744;2023-02-28T10:55:14;11.85;;;7.25;;
76935;SDS011;65881;52.438;16.744;2023-02-28T10:57:46;15.23;;;7.65;;
76935;SDS011;65881;52.438;16.744;2023-02-28T11:00:22;10.75;;;6.47;;
76935;SDS011;65881;52.438;16.744;2023-02-28T11:02:52;13.68;;;6.57;;
76935;SDS011;65881;52.438;16.744;2023-02-28T11:05:34;11.57;;;7.13;;
76935;SDS011;65881;52.438;16.744;2023-02-28T11:08:06;13.20;;;6.72;;
76935;SDS011;65881;52.438;16.744;2023-02-28T11:10:37;12.57;;;6.72;;
76935;SDS011;65881;52.438;16.744;2023-02-28T11:13:04;12.77;;;7.47;;
76935;SDS011;65881;52.438;16.744;2023-02-28T11:15:32;11.70;;;7.20;;
76935;SDS011;65881;52.438;16.744;2023-02-28T11:21:19;11.30;;;5.95;;
76935;SDS011;65881;52.438;16.744;2023-02-28T11:26:16;9.35;;;6.15;;
76935;SDS011;65881;52.438;16.744;2023-02-28T11:29:20;14.20;;;7.10;;
76935;SDS011;65881;52.438;16.744;2023-02-28T11:34:31;16.55;;;7.65;;
76935;SDS011;65881;52.438;16.744;2023-02-28T11:36:58;10.07;;;6.88;;
76935;SDS011;65881;52.438;16.744;2023-02-28T11:39:25;12.98;;;6.60;;
76935;SDS011;65881;52.438;16.744;2023-02-28T12:01:54;16.00;;;8.15;;
76935;SDS011;65881;52.438;16.744;2023-02-28T12:18:26;13.52;;;8.55;;
76935;SDS011;65881;52.438;16.744;2023-02-28T12:21:08;23.38;;;10.38;;
76935;SDS011;65881;52.438;16.744;2023-02-28T12:26:19;12.05;;;7.82;;
76935;SDS011;65881;52.438;16.744;2023-02-28T12:29:02;10.88;;;7.15;;
76935;SDS011;65881;52.438;16.744;2023-02-28T12:31:36;16.00;;;8.65;;
76935;SDS011;65881;52.438;16.744;2023-02-28T12:34:12;12.95;;;8.30;;
76935;SDS011;65881;52.438;16.744;2023-02-28T12:36:41;12.88;;;7.35;;
76935;SDS011;65881;52.438;16.744;2023-02-28T12:41:47;12.85;;;8.25;;
76935;SDS011;65881;52.438;16.744;2023-02-28T12:44:47;14.55;;;7.85;;
76935;SDS011;65881;52.438;16.744;2023-02-28T12:47:17;16.25;;;8.27;;
76935;SDS011;65881;52.438;16.744;2023-02-28T12:49:51;12.82;;;7.85;;
76935;SDS011;65881;52.438;16.744;2023-02-28T12:52:40;12.48;;;7.85;;
76935;SDS011;65881;52.438;16.744;2023-02-28T12:57:48;18.45;;;8.55;;
76935;SDS011;65881;52.438;16.744;2023-02-28T13:00:22;17.95;;;8.50;;
76935;SDS011;65881;52.438;16.744;2023-02-28T13:02:53;12.70;;;7.05;;
76935;SDS011;65881;52.438;16.744;2023-02-28T13:11:42;16.23;;;8.45;;
76935;SDS011;65881;52.438;16.744;2023-02-28T13:14:43;15.48;;;7.95;;
76935;SDS011;65881;52.438;16.744;2023-02-28T13:19:35;11.63;;;8.05;;
76935;SDS011;65881;52.438;16.744;2023-02-28T13:22:03;10.43;;;7.38;;
76935;SDS011;65881;52.438;16.744;2023-02-28T13:24:37;16.50;;;8.15;;
76935;SDS011;65881;52.438;16.744;2023-02-28T13:34:33;13.60;;;7.85;;
76935;SDS011;65881;52.438;16.744;2023-02-28T13:37:43;11.50;;;7.43;;
76935;SDS011;65881;52.438;16.744;2023-02-28T14:06:52;11.48;;;6.38;;
76935;SDS011;65881;52.438;16.744;2023-02-28T14:09:27;13.27;;;7.18;;
76935;SDS011;65881;52.438;16.744;2023-02-28T14:11:54;13.75;;;7.30;;
76935;SDS011;65881;52.438;16.744;2023-02-28T14:17:01;10.95;;;6.43;;
76935;SDS011;65881;52.438;16.744;2023-02-28T14:19:30;11.95;;;7.22;;
76935;SDS011;65881;52.438;16.744;2023-02-28T14:27:24;12.10;;;6.07;;
76935;SDS011;65881;52.438;16.744;2023-02-28T14:37:37;17.95;;;7.53;;
76935;SDS011;65881;52.438;16.744;2023-02-28T14:40:04;12.57;;;7.13;;
76935;SDS011;65881;52.438;16.744;2023-02-28T14:42:37;12.07;;;6.75;;
76935;SDS011;65881;52.438;16.744;2023-02-28T14:45:16;10.57;;;7.35;;
76935;SDS011;65881;52.438;16.744;2023-02-28T14:47:44;12.98;;;7.95;;
76935;SDS011;65881;52.438;16.744;2023-02-28T14:50:23;12.65;;;7.65;;
76935;SDS011;65881;52.438;16.744;2023-02-28T14:52:56;15.10;;;7.47;;
76935;SDS011;65881;52.438;16.744;2023-02-28T14:55:30;11.80;;;7.75;;
76935;SDS011;65881;52.438;16.744;2023-02-28T14:57:58;11.80;;;7.20;;
76935;SDS011;65881;52.438;16.744;2023-02-28T15:00:33;13.70;;;7.38;;
76935;SDS011;65881;52.438;16.744;2023-02-28T15:03:17;11.60;;;7.70;;
76935;SDS011;65881;52.438;16.744;2023-02-28T15:06:18;11.60;;;7.65;;
76935;SDS011;65881;52.438;16.744;2023-02-28T15:08:45;11.73;;;7.43;;
76935;SDS011;65881;52.438;16.744;2023-02-28T15:11:15;15.10;;;7.57;;
76935;SDS011;65881;52.438;16.744;2023-02-28T15:13:54;15.20;;;7.20;;
76935;SDS011;65881;52.438;16.744;2023-02-28T15:16:33;14.35;;;7.28;;
76935;SDS011;65881;52.438;16.744;2023-02-28T15:19:08;18.23;;;7.90;;
76935;SDS011;65881;52.438;16.744;2023-02-28T15:21:56;16.52;;;7.82;;
76935;SDS011;65881;52.438;16.744;2023-02-28T15:25:09;11.15;;;6.28;;
76935;SDS011;65881;52.438;16.744;2023-02-28T15:33:01;13.02;;;7.65;;
76935;SDS011;65881;52.438;16.744;2023-02-28T15:35:36;12.25;;;6.43;;
76935;SDS011;65881;52.438;16.744;2023-02-28T15:38:04;14.48;;;7.30;;
76935;SDS011;65881;52.438;16.744;2023-02-28T15:40:42;12.10;;;7.20;;
76935;SDS011;65881;52.438;16.744;2023-02-28T15:45:47;9.98;;;6.82;;
76935;SDS011;65881;52.438;16.744;2023-02-28T15:48:22;12.10;;;6.85;;
76935;SDS011;65881;52.438;16.744;2023-02-28T15:51:37;12.65;;;7.60;;
76935;SDS011;65881;52.438;16.744;2023-02-28T15:53:54;12.30;;;7.10;;
76935;SDS011;65881;52.438;16.744;2023-02-28T15:59:01;11.38;;;7.53;;
76935;SDS011;65881;52.438;16.744;2023-02-28T16:01:31;13.93;;;7.53;;
76935;SDS011;65881;52.438;16.744;2023-02-28T16:04:14;18.40;;;8.27;;
76935;SDS011;65881;52.438;16.744;2023-02-28T16:06:46;16.13;;;8.23;;
76935;SDS011;65881;52.438;16.744;2023-02-28T16:09:24;15.48;;;9.00;;
76935;SDS011;65881;52.438;16.744;2023-02-28T16:11:50;16.70;;;7.88;;
76935;SDS011;65881;52.438;16.744;2023-02-28T16:20:29;13.20;;;7.10;;
76935;SDS011;65881;52.438;16.744;2023-02-28T16:23:00;14.77;;;6.93;;
76935;SDS011;65881;52.438;16.744;2023-02-28T16:28:19;13.60;;;7.43;;
76935;SDS011;65881;52.438;16.744;2023-02-28T16:30:50;16.48;;;8.65;;
76935;SDS011;65881;52.438;16.744;2023-02-28T16:33:16;10.73;;;7.53;;
76935;SDS011;65881;52.438;16.744;2023-02-28T16:35:43;16.27;;;8.75;;
76935;SDS011;65881;52.438;16.744;2023-02-28T16:38:09;14.90;;;7.97;;
76935;SDS011;65881;52.438;16.744;2023-02-28T16:40:35;14.43;;;8.07;;
76935;SDS011;65881;52.438;16.744;2023-02-28T16:43:04;16.52;;;8.73;;
76935;SDS011;65881;52.438;16.744;2023-02-28T16:45:32;16.55;;;9.70;;
76935;SDS011;65881;52.438;16.744;2023-02-28T16:47:58;16.65;;;9.43;;
76935;SDS011;65881;52.438;16.744;2023-02-28T16:50:25;14.48;;;7.88;;
76935;SDS011;65881;52.438;16.744;2023-02-28T16:52:52;19.42;;;9.75;;
76935;SDS011;65881;52.438;16.744;2023-02-28T16:55:19;17.80;;;9.35;;
76935;SDS011;65881;52.438;16.744;2023-02-28T16:57:55;14.55;;;8.07;;
76935;SDS011;65881;52.438;16.744;2023-02-28T17:00:23;17.75;;;8.25;;
76935;SDS011;65881;52.438;16.744;2023-02-28T17:02:49;16.60;;;8.65;;
76935;SDS011;65881;52.438;16.744;2023-02-28T17:05:15;12.32;;;7.07;;
76935;SDS011;65881;52.438;16.744;2023-02-28T17:07:42;12.15;;;7.50;;
76935;SDS011;65881;52.438;16.744;2023-02-28T17:10:13;13.95;;;8.85;;
76935;SDS011;65881;52.438;16.744;2023-02-28T17:12:57;14.88;;;7.07;;
76935;SDS011;65881;52.438;16.744;2023-02-28T17:15:23;15.10;;;7.82;;
76935;SDS011;65881;52.438;16.744;2023-02-28T17:17:49;13.98;;;7.85;;
76935;SDS011;65881;52.438;16.744;2023-02-28T17:20:20;13.70;;;7.60;;
76935;SDS011;65881;52.438;16.744;2023-02-28T17:22:51;10.20;;;6.43;;
76935;SDS011;65881;52.438;16.744;2023-02-28T17:25:17;9.68;;;5.80;;
76935;SDS011;65881;52.438;16.744;2023-02-28T17:27:43;11.23;;;6.47;;
76935;SDS011;65881;52.438;16.744;2023-02-28T17:30:17;17.88;;;9.95;;
76935;SDS011;65881;52.438;16.744;2023-02-28T17:32:44;21.23;;;10.88;;